Etusivu
METAR-TAF:

METAR-TAF

Lentoasemat :

Berlin, New Hampshire, Yhdysvallat

Leveyspiiri: 44-34-34N, Pituuspiiri: 071-10-43W, korkeus merenpinnasta: 353 m

Tämänhetkinen sää

Tämä raportti tehtiin 39 minuuttia sitten, kello 01.14 UTC
Tuuli 3 kn etelästä/lounaasta
Lämpötila 1°C
Kosteus 93%
Ilmanpaine 986 hPa
Näkyvyys: 2.0 km
Hajonneita pilviä 700 ft:n korkeudessa
Pilvistä 1400 ft:n korkeudessa
heikkoa lumisadetta, utua

METAR: KBML 100114Z AUTO 21003KT 1 1/4SM -SN BR BKN007 OVC014 01/00 A2913 RMK AO2 P0001 T00110000

Aika: 21:53 (01:53 UTC)


TAF: puuttuu

Säähavainnot ja -ennusteet yli 4000 lentoasemalta (METAR- ja TAF-raportit).

Käytössä olevat sääasemat on merkitty karttaan keltaisilla ja punaisilla pisteillä.

Aseta hiiri pisteen päälle nähdäksesi sääaseman nimen.

Klikkaa sitten nähdäksesi säähavainnot ja -ennusteet.

Kartan vaihtaminen: klikkaa mustalla rastilla varustettuja vihreitä pisteitä, niin voit zoomata sisään; viivalla varustettua vihreää pistettä, niin voit zoomata ulos tai vihreitä nuolia, niin pääset viereisille kartoille.


METAR-TAF: